Time;durP1;ratioP1;P1;durP2;ratioP2;P2;SDS_P1;SDS_P2;PMS_P1;PMS_P2;Temp;Humidity;BMP_temperature;BMP_pressure;BME280_temperature;BME280_humidity;BME280_pressure;Samples;Min_cycle;Max_cycle;Signal;HPM_P1;HPM_P2
2023/07/03 00:00:58;;;;;;;11.10;4.20;;;14.20;67.70;;;;;;4955489;28;20133;-77
2023/07/03 00:03:25;;;;;;;10.13;3.47;;;14.10;67.90;;;;;;4959366;28;20050;-77
2023/07/03 00:05:52;;;;;;;12.35;4.07;;;14.10;68.10;;;;;;4965831;28;20055;-77
2023/07/03 00:08:19;;;;;;;12.18;4.00;;;14.10;68.10;;;;;;4925300;28;1168509;-77
2023/07/03 00:10:46;;;;;;;9.63;3.70;;;14.00;68.50;;;;;;4954604;28;20047;-77
2023/07/03 00:13:13;;;;;;;11.93;4.07;;;14.00;68.70;;;;;;4956891;28;20051;-77
2023/07/03 00:15:40;;;;;;;8.40;3.83;;;13.90;68.70;;;;;;4956377;28;20110;-77
2023/07/03 00:18:07;;;;;;;15.50;4.03;;;13.90;69.10;;;;;;4968230;28;20055;-77
2023/07/03 00:20:34;;;;;;;11.05;4.13;;;13.90;69.10;;;;;;4938466;28;20049;-77
2023/07/03 00:23:03;;;;;;;13.13;3.80;;;13.80;69.70;;;;;;4941216;28;20645;-77
2023/07/03 00:25:30;;;;;;;13.65;3.92;;;13.80;69.80;;;;;;4933315;28;20408;-77
2023/07/03 00:27:57;;;;;;;14.85;3.95;;;13.80;70.20;;;;;;4946533;28;20130;-77
2023/07/03 00:30:23;;;;;;;10.20;3.90;;;13.80;70.40;;;;;;4952587;28;20061;-77
2023/07/03 00:32:50;;;;;;;13.50;4.65;;;13.80;70.50;;;;;;4969898;28;20047;-76
2023/07/03 00:35:17;;;;;;;12.57;4.32;;;13.80;70.40;;;;;;4941656;28;20067;-77
2023/07/03 00:37:44;;;;;;;20.02;4.47;;;13.80;70.50;;;;;;4940673;28;20141;-76
2023/07/03 00:40:11;;;;;;;13.30;4.07;;;13.80;70.60;;;;;;4938681;28;20138;-84
2023/07/03 00:42:38;;;;;;;10.93;3.92;;;13.90;70.60;;;;;;4967194;28;20142;-84
2023/07/03 00:45:09;;;;;;;20.73;4.93;;;13.90;71.10;;;;;;4951934;28;20142;-85
2023/07/03 00:47:37;;;;;;;13.68;4.32;;;13.90;70.40;;;;;;4947168;28;20047;-84
2023/07/03 00:50:04;;;;;;;12.77;3.85;;;14.00;71.00;;;;;;4937293;29;20415;-85
2023/07/03 00:52:31;;;;;;;11.98;3.97;;;14.00;70.50;;;;;;4955442;28;20043;-85
2023/07/03 00:54:58;;;;;;;13.10;4.85;;;14.00;70.60;;;;;;4965785;28;20167;-84
2023/07/03 00:57:26;;;;;;;8.52;3.80;;;14.10;70.80;;;;;;4959175;28;20055;-85
2023/07/03 00:59:53;;;;;;;12.90;4.20;;;14.10;70.50;;;;;;4948477;28;20059;-85
2023/07/03 01:02:48;;;;;;;14.32;4.03;;;14.10;70.80;;;;;;4947019;28;20584;-84
2023/07/03 01:05:22;;;;;;;9.52;4.60;;;14.10;70.00;;;;;;4947465;28;20131;-85
2023/07/03 01:07:51;;;;;;;24.55;4.50;;;14.10;70.10;;;;;;4951153;28;20184;-85
2023/07/03 01:10:21;;;;;;;12.15;4.47;;;14.10;70.00;;;;;;4934660;28;20047;-85
2023/07/03 01:13:05;;;;;;;13.30;4.55;;;14.10;70.20;;;;;;4938491;29;20115;-85
2023/07/03 01:15:36;;;;;;;16.20;4.25;;;14.20;69.60;;;;;;4948660;28;20106;-85
2023/07/03 01:18:06;;;;;;;10.93;4.20;;;14.20;69.90;;;;;;4960946;28;20051;-84
2023/07/03 01:20:54;;;;;;;14.43;4.53;;;14.20;69.30;;;;;;4931896;29;20047;-84
2023/07/03 01:23:28;;;;;;;15.30;3.95;;;14.20;69.20;;;;;;4933432;29;20040;-85
2023/07/03 01:25:57;;;;;;;15.82;4.60;;;14.20;68.70;;;;;;4952327;29;20071;-85
2023/07/03 01:28:26;;;;;;;12.43;3.70;;;14.20;68.70;;;;;;4945671;29;20051;-85
2023/07/03 01:30:55;;;;;;;12.18;4.35;;;14.30;68.40;;;;;;4956733;28;20058;-84
2023/07/03 01:33:30;;;;;;;14.65;4.13;;;14.30;67.90;;;;;;4960120;28;20059;-84
2023/07/03 01:35:59;;;;;;;9.70;3.75;;;14.30;68.20;;;;;;4932100;29;20134;-85
2023/07/03 01:38:26;;;;;;;14.85;3.70;;;14.30;68.30;;;;;;4962048;28;20057;-85
2023/07/03 01:40:55;;;;;;;10.90;3.75;;;14.30;68.90;;;;;;4953372;28;20053;-85
2023/07/03 01:43:23;;;;;;;15.00;4.43;;;14.30;68.60;;;;;;4959474;28;20049;-85
2023/07/03 01:45:50;;;;;;;13.10;3.55;;;14.40;68.70;;;;;;4936000;29;20047;-84
2023/07/03 01:48:18;;;;;;;15.05;3.97;;;14.40;68.00;;;;;;4951046;28;20151;-85
2023/07/03 01:50:47;;;;;;;14.52;3.97;;;14.40;67.60;;;;;;4969655;28;20132;-85
2023/07/03 01:53:31;;;;;;;11.25;4.40;;;14.40;68.20;;;;;;4952237;28;20111;-85
2023/07/03 01:56:04;;;;;;;13.25;3.95;;;14.40;68.30;;;;;;4936406;29;20827;-85
2023/07/03 01:58:38;;;;;;;15.93;4.25;;;14.40;68.50;;;;;;4934488;29;20065;-85
2023/07/03 02:01:10;;;;;;;12.10;4.20;;;14.40;68.30;;;;;;4973771;28;20101;-85
2023/07/03 02:03:43;;;;;;;14.32;3.95;;;14.40;68.10;;;;;;4952332;28;20322;-85
2023/07/03 02:06:20;;;;;;;13.50;3.83;;;14.40;68.20;;;;;;4956637;28;20085;-85
2023/07/03 02:08:52;;;;;;;14.05;3.63;;;14.40;67.50;;;;;;4933805;29;20674;-85
2023/07/03 02:11:22;;;;;;;13.38;4.00;;;14.30;67.50;;;;;;4948785;29;20062;-85
2023/07/03 02:13:49;;;;;;;20.50;4.22;;;14.30;67.80;;;;;;4954148;28;20051;-84
2023/07/03 02:16:16;;;;;;;21.75;4.63;;;14.30;67.40;;;;;;4931731;29;20090;-85
2023/07/03 02:18:43;;;;;;;15.43;4.03;;;14.30;67.70;;;;;;4954910;28;20129;-86
2023/07/03 02:21:10;;;;;;;12.65;4.13;;;14.30;67.80;;;;;;4934369;28;20050;-86
2023/07/03 02:23:37;;;;;;;12.05;4.78;;;14.20;68.20;;;;;;4977298;28;20127;-85
2023/07/03 02:26:04;;;;;;;10.82;4.07;;;14.20;68.10;;;;;;4948025;29;20048;-85
2023/07/03 02:28:31;;;;;;;15.05;4.50;;;14.10;68.20;;;;;;4939284;28;20043;-85
2023/07/03 02:30:59;;;;;;;19.15;4.13;;;14.10;68.50;;;;;;4937455;29;20062;-85
2023/07/03 02:33:26;;;;;;;11.48;4.32;;;14.10;68.80;;;;;;4966401;28;20051;-85
2023/07/03 02:35:53;;;;;;;16.88;3.97;;;14.10;68.50;;;;;;4934958;29;20057;-85
2023/07/03 02:38:20;;;;;;;9.80;4.40;;;14.10;68.30;;;;;;4948096;28;20078;-85
2023/07/03 02:40:47;;;;;;;12.15;4.53;;;14.00;68.40;;;;;;4942486;29;20078;-85
2023/07/03 02:43:14;;;;;;;12.70;3.95;;;14.00;69.10;;;;;;4951093;28;20084;-85
2023/07/03 02:45:42;;;;;;;15.07;5.50;;;13.90;68.90;;;;;;4951079;28;20047;-84
2023/07/03 02:48:10;;;;;;;11.52;4.72;;;13.90;69.10;;;;;;4954687;28;20054;-85
2023/07/03 02:50:37;;;;;;;17.35;4.22;;;13.90;69.40;;;;;;4951562;28;20074;-85
2023/07/03 02:53:04;;;;;;;13.50;4.38;;;13.80;69.20;;;;;;4964099;28;20103;-86
2023/07/03 02:55:31;;;;;;;15.27;4.22;;;13.80;69.20;;;;;;4959114;28;20047;-85
2023/07/03 02:57:58;;;;;;;12.77;4.15;;;13.80;69.10;;;;;;4933859;29;20131;-85
2023/07/03 03:00:25;;;;;;;16.38;5.00;;;13.70;69.80;;;;;;4952076;28;20400;-85
2023/07/03 03:02:52;;;;;;;14.32;4.40;;;13.70;69.60;;;;;;4977109;28;20093;-86
2023/07/03 03:05:19;;;;;;;14.88;4.65;;;13.70;69.80;;;;;;4952816;28;20043;-85
2023/07/03 03:07:46;;;;;;;12.18;4.28;;;13.70;70.20;;;;;;4943562;28;20082;-85
2023/07/03 03:10:13;;;;;;;13.55;4.30;;;13.60;69.80;;;;;;4968242;28;20053;-85
2023/07/03 03:12:40;;;;;;;11.05;4.90;;;13.60;70.10;;;;;;4970225;28;20095;-85
2023/07/03 03:15:07;;;;;;;10.95;4.47;;;13.50;69.80;;;;;;4992950;28;20412;-86
2023/07/03 03:17:34;;;;;;;11.60;4.20;;;13.50;70.20;;;;;;4964097;28;20522;-85
2023/07/03 03:20:01;;;;;;;12.02;4.15;;;13.40;70.20;;;;;;4954457;28;20900;-85
2023/07/03 03:22:28;;;;;;;15.60;3.90;;;13.40;70.20;;;;;;4954889;28;20054;-85
2023/07/03 03:24:55;;;;;;;10.15;4.63;;;13.40;70.40;;;;;;4974702;28;20130;-85
2023/07/03 03:27:22;;;;;;;15.95;4.30;;;13.30;70.40;;;;;;4970495;28;20051;-85
2023/07/03 03:29:50;;;;;;;13.68;4.18;;;13.30;70.40;;;;;;4969771;28;20061;-86
2023/07/03 03:32:17;;;;;;;16.50;3.95;;;13.30;70.40;;;;;;4977111;28;20169;-86
2023/07/03 03:34:44;;;;;;;16.65;3.63;;;13.30;71.10;;;;;;4954674;28;20055;-86
2023/07/03 03:37:11;;;;;;;12.60;4.13;;;13.30;70.90;;;;;;4977506;28;20121;-85
2023/07/03 03:39:38;;;;;;;14.75;4.60;;;13.30;71.20;;;;;;4949701;28;20097;-85
2023/07/03 03:42:05;;;;;;;14.07;4.60;;;13.30;71.10;;;;;;4980898;28;20047;-85
2023/07/03 03:44:32;;;;;;;10.50;4.18;;;13.30;71.20;;;;;;4948475;28;20179;-85
2023/07/03 03:46:59;;;;;;;11.65;4.15;;;13.30;71.40;;;;;;4979041;28;20047;-85
2023/07/03 03:49:26;;;;;;;13.23;3.95;;;13.30;71.60;;;;;;4948888;28;20411;-85
2023/07/03 03:51:53;;;;;;;13.45;4.05;;;13.40;72.10;;;;;;4984332;28;20543;-85
2023/07/03 03:54:20;;;;;;;12.10;4.63;;;13.40;71.70;;;;;;4951417;28;20050;-85
2023/07/03 03:56:47;;;;;;;17.10;4.80;;;13.40;71.80;;;;;;4973348;28;20078;-85
2023/07/03 03:59:14;;;;;;;7.53;3.92;;;13.40;71.80;;;;;;4952749;28;20129;-85
2023/07/03 04:01:42;;;;;;;15.30;4.63;;;13.50;72.10;;;;;;4969510;28;20142;-86
2023/07/03 04:04:10;;;;;;;21.05;4.75;;;13.50;71.90;;;;;;4978806;28;20122;-85
2023/07/03 04:06:38;;;;;;;10.00;4.65;;;13.50;72.00;;;;;;4983715;28;20050;-85
2023/07/03 04:09:05;;;;;;;12.38;4.72;;;13.50;72.20;;;;;;4972228;28;20407;-85
2023/07/03 04:11:32;;;;;;;21.48;5.43;;;13.60;72.40;;;;;;4947152;28;20063;-85
2023/07/03 04:13:59;;;;;;;12.38;4.57;;;13.60;73.00;;;;;;4950599;29;20129;-84
2023/07/03 04:16:29;;;;;;;10.52;4.47;;;13.60;73.10;;;;;;4951019;28;20058;-84
2023/07/03 04:18:56;;;;;;;15.38;4.20;;;13.60;72.90;;;;;;4931696;29;20138;-85
2023/07/03 04:21:23;;;;;;;26.45;5.53;;;13.70;73.30;;;;;;4934222;29;20079;-83
2023/07/03 04:23:50;;;;;;;14.23;5.03;;;13.70;72.60;;;;;;4954112;28;20055;-85
2023/07/03 04:26:17;;;;;;;13.82;5.25;;;13.80;73.30;;;;;;4965839;28;20055;-85
2023/07/03 04:28:44;;;;;;;14.60;4.72;;;13.70;73.00;;;;;;4953363;28;20168;-85
2023/07/03 04:31:11;;;;;;;11.05;4.60;;;13.80;72.90;;;;;;4972164;28;20051;-84
2023/07/03 04:33:38;;;;;;;13.30;4.47;;;13.80;73.50;;;;;;4932897;29;20039;-84
2023/07/03 04:36:05;;;;;;;21.23;5.05;;;13.90;73.60;;;;;;4954305;28;20477;-84
2023/07/03 04:38:32;;;;;;;18.52;5.35;;;13.90;72.90;;;;;;4948579;29;20070;-84
2023/07/03 04:40:59;;;;;;;16.77;4.85;;;14.00;73.40;;;;;;4951709;28;20491;-85
2023/07/03 04:43:29;;;;;;;19.10;5.07;;;14.00;73.50;;;;;;4953428;28;20437;-85
2023/07/03 04:46:02;;;;;;;19.08;5.38;;;14.00;73.20;;;;;;4960815;28;20764;-85
2023/07/03 04:48:31;;;;;;;19.42;5.20;;;14.10;73.40;;;;;;4940708;29;20601;-85
2023/07/03 04:50:59;;;;;;;12.90;4.38;;;14.10;73.30;;;;;;4936584;29;20488;-84
2023/07/03 04:53:26;;;;;;;17.95;4.82;;;14.20;73.00;;;;;;4942488;28;20047;-84
2023/07/03 04:55:53;;;;;;;16.05;5.40;;;14.20;72.90;;;;;;4953511;29;20055;-82
2023/07/03 04:58:21;;;;;;;17.48;5.00;;;14.30;73.20;;;;;;4954827;28;20055;-82
2023/07/03 05:00:48;;;;;;;14.15;4.55;;;14.40;72.80;;;;;;4960401;28;20073;-81
2023/07/03 05:03:15;;;;;;;10.30;4.15;;;14.40;72.40;;;;;;4958361;28;20488;-85
2023/07/03 05:05:43;;;;;;;8.60;3.88;;;14.50;72.60;;;;;;4935588;28;20043;-79
2023/07/03 05:08:10;;;;;;;16.73;5.38;;;14.50;72.20;;;;;;4947749;28;20086;-75
2023/07/03 05:10:38;;;;;;;14.75;4.75;;;14.60;72.30;;;;;;4933937;28;20719;-75
2023/07/03 05:13:05;;;;;;;13.98;4.57;;;14.70;72.40;;;;;;4947637;28;20780;-76
2023/07/03 05:15:32;;;;;;;16.23;4.68;;;14.70;72.10;;;;;;4935050;28;20062;-75
2023/07/03 05:18:00;;;;;;;13.40;4.25;;;14.80;71.80;;;;;;4949005;28;20055;-77
2023/07/03 05:20:27;;;;;;;28.67;5.50;;;14.80;71.90;;;;;;4952346;28;20078;-73
2023/07/03 05:22:55;;;;;;;15.48;4.38;;;14.90;71.30;;;;;;4950400;28;20111;-76
2023/07/03 05:25:22;;;;;;;15.90;4.68;;;15.00;71.30;;;;;;4953486;28;20080;-78
2023/07/03 05:27:49;;;;;;;13.18;4.43;;;15.10;71.40;;;;;;4945562;29;20143;-77
2023/07/03 05:30:16;;;;;;;20.88;5.20;;;15.20;71.20;;;;;;4951101;28;20058;-81
2023/07/03 05:32:43;;;;;;;14.35;4.38;;;15.20;70.90;;;;;;4932406;29;20047;-75
2023/07/03 05:35:10;;;;;;;9.52;4.70;;;15.30;70.70;;;;;;4950896;28;20460;-76
2023/07/03 05:37:37;;;;;;;16.75;5.00;;;15.40;70.60;;;;;;4946380;28;20650;-80
2023/07/03 05:40:06;;;;;;;12.70;4.70;;;15.50;71.90;;;;;;4963272;28;20135;-79
2023/07/03 05:42:35;;;;;;;20.60;4.82;;;15.50;70.70;;;;;;4939951;28;20055;-75
2023/07/03 05:45:04;;;;;;;15.68;4.93;;;15.60;70.80;;;;;;4945737;28;20057;-76
2023/07/03 05:47:31;;;;;;;15.20;4.60;;;15.70;70.60;;;;;;4928974;28;20917;-76
2023/07/03 05:50:03;;;;;;;21.10;5.60;;;15.80;70.00;;;;;;4940196;28;20059;-76
2023/07/03 05:52:33;;;;;;;10.73;4.15;;;15.80;69.80;;;;;;4943451;28;20134;-77
2023/07/03 05:55:00;;;;;;;14.23;4.47;;;15.90;69.80;;;;;;4953619;28;20051;-77
2023/07/03 05:57:27;;;;;;;16.05;4.50;;;16.00;69.10;;;;;;4937746;28;20829;-77
2023/07/03 05:59:54;;;;;;;16.38;4.60;;;16.10;69.40;;;;;;4947997;28;20059;-77
2023/07/03 06:02:21;;;;;;;14.35;4.82;;;16.10;69.50;;;;;;4964673;28;20134;-77
2023/07/03 06:04:48;;;;;;;13.27;4.18;;;16.20;69.60;;;;;;4943566;28;20046;-77
2023/07/03 06:07:15;;;;;;;12.15;3.97;;;16.20;69.10;;;;;;4954778;28;20063;-77
2023/07/03 06:09:42;;;;;;;17.02;4.63;;;16.30;69.10;;;;;;4960245;28;20058;-77
2023/07/03 06:12:09;;;;;;;17.70;4.40;;;16.50;69.40;;;;;;4954516;28;20047;-77
2023/07/03 06:14:36;;;;;;;21.40;4.80;;;16.60;69.80;;;;;;4957071;28;20780;-77
2023/07/03 06:17:03;;;;;;;18.77;4.22;;;16.90;70.00;;;;;;4936301;28;20133;-77
2023/07/03 06:19:30;;;;;;;14.40;4.65;;;17.20;70.90;;;;;;4959103;28;20038;-77
2023/07/03 06:21:57;;;;;;;14.60;4.97;;;17.40;68.00;;;;;;4944165;28;20150;-77
2023/07/03 06:24:25;;;;;;;13.65;4.70;;;17.70;69.70;;;;;;4960116;28;20058;-77
2023/07/03 06:26:52;;;;;;;15.85;6.15;;;18.00;66.60;;;;;;4932499;28;20053;-78
2023/07/03 06:29:19;;;;;;;16.55;4.30;;;18.30;66.70;;;;;;4958887;28;20055;-77
2023/07/03 06:31:47;;;;;;;11.88;3.92;;;18.50;62.50;;;;;;4954036;28;20043;-77
2023/07/03 06:34:45;;;;;;;14.43;4.85;;;18.50;64.30;;;;;;4945543;29;20082;-76
2023/07/03 06:37:12;;;;;;;16.25;4.35;;;18.60;63.70;;;;;;4938729;28;20122;-77
2023/07/03 06:39:39;;;;;;;16.77;4.22;;;18.60;62.60;;;;;;4945972;28;20047;-77
2023/07/03 06:42:06;;;;;;;17.95;4.70;;;18.60;64.50;;;;;;4946285;28;20051;-77
2023/07/03 06:44:33;;;;;;;14.60;4.50;;;18.40;62.40;;;;;;4950488;28;20054;-76
2023/07/03 06:47:00;;;;;;;22.15;5.28;;;18.40;63.30;;;;;;4940384;29;20154;-76
2023/07/03 06:49:29;;;;;;;18.13;4.82;;;18.30;64.60;;;;;;4928666;28;20062;-77
2023/07/03 06:51:57;;;;;;;16.92;5.45;;;18.50;65.10;;;;;;4945611;28;20610;-76
2023/07/03 06:54:24;;;;;;;15.23;4.30;;;18.70;65.80;;;;;;4952048;28;20047;-76
2023/07/03 06:56:51;;;;;;;11.88;4.50;;;19.00;64.20;;;;;;4928184;29;20531;-77
2023/07/03 06:59:18;;;;;;;8.98;3.78;;;19.20;62.30;;;;;;4949182;28;20051;-77
2023/07/03 07:01:45;;;;;;;10.88;4.80;;;19.30;62.90;;;;;;4942938;28;20049;-77
2023/07/03 07:04:12;;;;;;;17.00;3.90;;;19.50;63.20;;;;;;4958829;28;20175;-76
2023/07/03 07:06:40;;;;;;;20.48;3.92;;;19.70;61.30;;;;;;4958093;28;20051;-77
2023/07/03 07:09:06;;;;;;;12.43;3.40;;;19.90;61.40;;;;;;4963896;28;20043;-77
2023/07/03 07:11:35;;;;;;;12.13;4.05;;;20.10;61.20;;;;;;4958175;28;20042;-77
2023/07/03 07:14:04;;;;;;;18.58;3.92;;;20.20;59.30;;;;;;4943755;28;20054;-77
2023/07/03 07:16:35;;;;;;;16.38;3.67;;;20.30;61.50;;;;;;4955554;28;20563;-77
2023/07/03 07:19:08;;;;;;;18.40;4.03;;;20.50;56.40;;;;;;4938564;28;20050;-79
2023/07/03 07:21:38;;;;;;;18.63;4.00;;;20.50;57.90;;;;;;4962086;28;20081;-77
2023/07/03 07:24:18;;;;;;;19.58;4.10;;;20.60;59.50;;;;;;4956139;28;20134;-78
2023/07/03 07:26:46;;;;;;;13.25;3.55;;;20.70;57.60;;;;;;4946252;28;20122;-77
2023/07/03 07:29:13;;;;;;;15.82;3.88;;;20.70;57.50;;;;;;4930967;28;20047;-78
2023/07/03 07:34:48;;;;;;;17.45;4.53;;;20.80;57.00;;;;;;5000352;28;20042;-77
2023/07/03 07:37:15;;;;;;;10.52;3.22;;;20.70;56.70;;;;;;5020679;28;20053;-77
2023/07/03 07:39:43;;;;;;;9.32;2.92;;;20.70;55.90;;;;;;4986798;28;20057;-78
2023/07/03 07:42:09;;;;;;;8.73;2.88;;;20.50;53.50;;;;;;4988583;28;20538;-78
2023/07/03 07:44:36;;;;;;;14.38;3.45;;;20.50;57.80;;;;;;4996453;28;20133;-77
2023/07/03 07:47:03;;;;;;;19.48;3.58;;;20.60;57.40;;;;;;5002921;28;20136;-77
2023/07/03 07:49:30;;;;;;;14.77;3.47;;;20.70;57.20;;;;;;5010531;28;20153;-77
2023/07/03 07:51:57;;;;;;;12.00;3.65;;;20.60;54.90;;;;;;5008695;28;20056;-77
2023/07/03 07:54:24;;;;;;;12.52;3.08;;;20.30;54.80;;;;;;5003367;28;20068;-77
2023/07/03 07:56:51;;;;;;;13.10;3.25;;;20.00;55.30;;;;;;5004212;28;20512;-77
2023/07/03 07:59:18;;;;;;;15.60;3.00;;;19.80;57.20;;;;;;5009253;28;20128;-78
2023/07/03 08:01:45;;;;;;;17.75;3.17;;;19.60;57.50;;;;;;5003835;28;20050;-78
2023/07/03 08:04:11;;;;;;;17.20;3.22;;;19.50;56.70;;;;;;5002667;28;20131;-78
2023/07/03 08:06:38;;;;;;;15.18;2.80;;;19.30;56.90;;;;;;5011673;28;20057;-78
2023/07/03 08:09:05;;;;;;;11.07;3.08;;;19.20;56.70;;;;;;5002666;28;20133;-78
2023/07/03 08:11:32;;;;;;;17.08;3.50;;;19.10;57.40;;;;;;4999521;28;20054;-77
2023/07/03 08:13:59;;;;;;;10.43;2.85;;;19.10;57.80;;;;;;4981420;28;20148;-77
2023/07/03 08:16:26;;;;;;;13.38;3.22;;;19.10;58.20;;;;;;4996182;28;20085;-77
2023/07/03 08:18:53;;;;;;;12.38;3.08;;;19.20;57.70;;;;;;5013354;28;20764;-78
2023/07/03 08:21:20;;;;;;;11.75;2.75;;;19.40;59.40;;;;;;4999522;28;20383;-77
2023/07/03 08:23:47;;;;;;;11.05;2.90;;;19.70;60.00;;;;;;5017736;28;20926;-78
2023/07/03 08:26:19;;;;;;;12.40;3.60;;;20.00;58.10;;;;;;5015465;28;20162;-78
2023/07/03 08:28:46;;;;;;;12.07;3.22;;;20.20;59.00;;;;;;5014162;28;20085;-78
2023/07/03 08:31:13;;;;;;;12.73;3.53;;;20.40;53.60;;;;;;5009866;28;20120;-78
2023/07/03 08:33:40;;;;;;;11.27;3.67;;;20.60;56.50;;;;;;4996464;28;20078;-78
2023/07/03 08:36:08;;;;;;;13.40;2.70;;;21.00;55.20;;;;;;5011932;28;20053;-78
2023/07/03 08:38:38;;;;;;;10.32;2.90;;;21.40;58.30;;;;;;5014704;28;20081;-79
2023/07/03 08:41:04;;;;;;;14.20;3.03;;;21.70;55.60;;;;;;4989421;28;20046;-78
2023/07/03 08:43:35;;;;;;;16.60;3.40;;;22.00;54.30;;;;;;4999702;28;20049;-78
2023/07/03 08:46:06;;;;;;;17.42;2.95;;;22.00;54.20;;;;;;5022910;28;20152;-77
2023/07/03 08:48:35;;;;;;;10.27;2.83;;;21.90;54.00;;;;;;5013944;28;20081;-78
2023/07/03 08:51:05;;;;;;;9.88;2.55;;;21.60;51.50;;;;;;4987681;28;20080;-78
2023/07/03 08:53:41;;;;;;;11.38;3.10;;;21.40;54.20;;;;;;5004723;28;20084;-77
2023/07/03 08:56:21;;;;;;;9.50;2.85;;;21.30;54.70;;;;;;5018215;28;20061;-77
2023/07/03 08:58:53;;;;;;;13.02;2.92;;;21.00;52.60;;;;;;4998931;28;20685;-78
2023/07/03 09:01:44;;;;;;;18.00;3.10;;;20.60;54.00;;;;;;5019512;28;20136;-77
2023/07/03 09:04:29;;;;;;;16.20;3.83;;;20.30;55.00;;;;;;5013663;28;20479;-78
2023/07/03 09:07:05;;;;;;;16.05;3.33;;;20.00;56.80;;;;;;5021321;28;20053;-78
2023/07/03 09:09:50;;;;;;;19.58;3.30;;;19.70;60.10;;;;;;5017737;28;20116;-78
2023/07/03 09:12:27;;;;;;;12.77;2.85;;;19.50;60.30;;;;;;5005929;28;20120;-78
2023/07/03 09:15:06;;;;;;;19.77;3.20;;;19.30;60.40;;;;;;4994716;28;20141;-77
2023/07/03 09:17:34;;;;;;;17.38;3.58;;;19.20;59.80;;;;;;5003404;28;20114;-77
2023/07/03 09:20:04;;;;;;;10.65;3.42;;;19.40;61.30;;;;;;5000370;28;20545;-78
2023/07/03 09:22:40;;;;;;;12.88;3.00;;;19.80;62.60;;;;;;4983758;28;20073;-78
2023/07/03 09:25:14;;;;;;;13.48;3.38;;;20.30;61.30;;;;;;5003472;28;20148;-77
2023/07/03 09:27:43;;;;;;;11.25;3.10;;;20.80;59.80;;;;;;5002407;28;20058;-77
2023/07/03 09:30:14;;;;;;;8.90;2.65;;;21.20;59.60;;;;;;5017148;28;20087;-78
2023/07/03 09:32:40;;;;;;;12.50;3.03;;;21.70;58.80;;;;;;4997946;28;20068;-77
2023/07/03 09:35:15;;;;;;;17.25;3.75;;;22.00;57.80;;;;;;5003393;28;20074;-77
2023/07/03 09:40:31;;;;;;;16.23;3.00;;;22.50;53.00;;;;;;4962998;28;20141;-77
2023/07/03 09:43:00;;;;;;;13.30;3.15;;;22.60;52.80;;;;;;4945875;28;20062;-77
2023/07/03 09:45:33;;;;;;;11.68;2.70;;;22.50;54.60;;;;;;4952122;28;20161;-76
2023/07/03 09:48:09;;;;;;;14.52;3.22;;;22.60;54.00;;;;;;4972865;28;20058;-77
2023/07/03 09:50:39;;;;;;;12.02;3.13;;;22.90;55.10;;;;;;4944675;28;20057;-76
2023/07/03 09:53:26;;;;;;;10.50;3.05;;;23.00;51.10;;;;;;4966447;28;20055;-77
2023/07/03 09:56:02;;;;;;;8.70;2.75;;;22.80;52.70;;;;;;4958880;28;20634;-77
2023/07/03 09:58:29;;;;;;;8.82;2.72;;;22.50;51.70;;;;;;4976351;28;20424;-77
2023/07/03 10:00:58;;;;;;;8.07;2.25;;;22.20;51.20;;;;;;4969844;28;20760;-77
2023/07/03 10:03:31;;;;;;;11.20;2.83;;;21.90;53.70;;;;;;4956820;28;20134;-76
2023/07/03 10:06:17;;;;;;;10.63;2.78;;;21.80;53.50;;;;;;4965456;28;20785;-77
2023/07/03 10:08:50;;;;;;;11.02;2.30;;;21.60;53.30;;;;;;4958194;28;20061;-76
2023/07/03 10:12:04;;;;;;;8.05;2.35;;;21.10;54.90;;;;;;4957453;28;20062;-77
2023/07/03 10:14:57;;;;;;;13.95;2.47;;;20.50;56.90;;;;;;4959084;28;20042;-76
2023/07/03 10:17:33;;;;;;;7.88;2.13;;;19.60;64.90;;;;;;4942997;28;20129;-78
2023/07/03 10:20:08;;;;;;;13.00;2.88;;;19.00;65.10;;;;;;4966587;28;20109;-78
2023/07/03 10:22:37;;;;;;;6.72;2.42;;;18.50;67.30;;;;;;4956024;28;20046;-79
2023/07/03 10:25:09;;;;;;;8.48;2.70;;;18.10;70.80;;;;;;4976009;28;20066;-78
2023/07/03 10:27:37;;;;;;;10.63;3.08;;;17.80;72.90;;;;;;4961064;28;20081;-78
2023/07/03 10:30:09;;;;;;;11.23;3.10;;;17.50;72.80;;;;;;4969979;28;20078;-78
2023/07/03 10:32:37;;;;;;;10.45;2.85;;;17.60;75.80;;;;;;4957832;28;20546;-78
2023/07/03 10:35:15;;;;;;;8.05;2.67;;;17.90;75.50;;;;;;4969561;28;20790;-78
2023/07/03 10:37:51;;;;;;;6.60;2.15;;;18.00;78.60;;;;;;4971582;28;20860;-78
2023/07/03 10:40:27;;;;;;;9.15;2.60;;;18.10;73.30;;;;;;4936419;28;20158;-78
2023/07/03 10:42:59;;;;;;;11.80;2.53;;;18.00;71.50;;;;;;4955986;28;20051;-78
2023/07/03 10:45:29;;;;;;;8.75;2.65;;;17.90;71.90;;;;;;4965751;28;20110;-78
2023/07/03 10:48:20;;;;;;;8.10;3.03;;;17.80;72.00;;;;;;4953669;28;20650;-78
2023/07/03 10:51:17;;;;;;;9.95;3.40;;;17.60;75.40;;;;;;4963149;28;20089;-78
2023/07/03 10:54:11;;;;;;;11.32;3.05;;;17.40;75.00;;;;;;4954357;28;20457;-78
2023/07/03 10:56:45;;;;;;;12.98;2.90;;;17.20;77.80;;;;;;4959662;28;20047;-78
2023/07/03 10:59:24;;;;;;;15.02;3.55;;;17.20;78.20;;;;;;4960492;28;20055;-78
2023/07/03 11:02:03;;;;;;;15.40;4.03;;;17.30;79.20;;;;;;4977013;28;20805;-79
2023/07/03 11:04:52;;;;;;;10.70;3.20;;;17.60;77.40;;;;;;4971979;28;20069;-78
2023/07/03 11:07:36;;;;;;;17.70;3.67;;;18.00;82.00;;;;;;4971004;28;20719;-79
2023/07/03 11:10:17;;;;;;;15.07;3.65;;;18.50;78.40;;;;;;4963572;28;20055;-79
2023/07/03 11:13:16;;;;;;;15.68;3.65;;;18.80;73.70;;;;;;4970001;28;20655;-77
2023/07/03 11:16:13;;;;;;;19.00;3.38;;;18.90;72.80;;;;;;4962670;28;20131;-78
2023/07/03 11:18:49;;;;;;;23.73;3.10;;;18.70;72.90;;;;;;4962974;28;20514;-78
2023/07/03 11:21:31;;;;;;;11.27;2.38;;;18.60;71.20;;;;;;4961503;28;20157;-78
2023/07/03 11:24:24;;;;;;;11.30;2.47;;;18.40;70.70;;;;;;4953216;28;20063;-78
2023/07/03 11:27:21;;;;;;;7.72;2.67;;;18.40;74.70;;;;;;4964127;28;20146;-78
2023/07/03 11:29:53;;;;;;;11.73;2.90;;;18.60;71.50;;;;;;4959197;28;20064;-78
2023/07/03 11:32:22;;;;;;;13.88;4.00;;;18.90;72.50;;;;;;4961934;28;20055;-78
2023/07/03 11:34:51;;;;;;;7.32;2.60;;;19.40;74.50;;;;;;4962248;28;20050;-78
2023/07/03 11:37:39;;;;;;;11.55;3.53;;;19.80;70.60;;;;;;4962748;28;20157;-78
2023/07/03 11:40:29;;;;;;;8.60;2.38;;;20.30;71.00;;;;;;4963984;28;20264;-78
2023/07/03 11:43:08;;;;;;;4.38;2.08;;;20.70;65.80;;;;;;4943197;28;20702;-80
2023/07/03 11:45:38;;;;;;;7.78;2.30;;;21.10;64.70;;;;;;4966947;28;20393;-80
2023/07/03 11:48:19;;;;;;;8.30;2.25;;;21.30;62.00;;;;;;4967589;28;20051;-87
2023/07/03 11:50:56;;;;;;;6.32;1.90;;;21.30;63.00;;;;;;4946544;28;20506;-88
2023/07/03 11:53:36;;;;;;;13.88;2.38;;;21.50;63.40;;;;;;4967163;28;20130;-86
2023/07/03 11:56:07;;;;;;;12.48;2.55;;;21.60;61.60;;;;;;4969669;28;20054;-84
2023/07/03 11:58:34;;;;;;;6.97;2.08;;;21.90;61.20;;;;;;4943891;28;20047;-86
2023/07/03 12:01:19;;;;;;;9.63;2.35;;;21.90;57.90;;;;;;4958937;28;20058;-84
2023/07/03 12:03:51;;;;;;;10.02;2.03;;;21.80;59.20;;;;;;4964309;28;20043;-86
2023/07/03 12:06:40;;;;;;;9.88;2.22;;;21.60;58.60;;;;;;4963360;28;20062;-85
2023/07/03 12:09:19;;;;;;;6.28;2.38;;;21.10;56.60;;;;;;4962693;28;20082;-85
2023/07/03 12:12:03;;;;;;;8.98;2.47;;;20.80;57.20;;;;;;4946868;28;20106;-86
2023/07/03 12:14:47;;;;;;;10.57;2.47;;;20.50;62.30;;;;;;4955739;28;20119;-85
2023/07/03 12:17:26;;;;;;;9.68;2.67;;;20.20;63.60;;;;;;4955298;28;20054;-86
2023/07/03 12:19:57;;;;;;;5.53;2.38;;;19.80;65.60;;;;;;4961162;28;20042;-85
2023/07/03 12:22:28;;;;;;;13.10;2.95;;;19.40;67.50;;;;;;4951705;28;20134;-84
2023/07/03 12:25:03;;;;;;;13.05;2.83;;;19.10;70.30;;;;;;4948371;28;20093;-84
2023/07/03 12:27:31;;;;;;;29.45;6.30;;;18.80;71.10;;;;;;4953470;28;20082;-82
2023/07/03 12:29:58;;;;;;;16.35;3.45;;;18.50;71.00;;;;;;4952019;28;20086;-78
2023/07/03 12:32:32;;;;;;;19.70;4.35;;;18.30;74.30;;;;;;4941981;28;20138;-77
2023/07/03 12:35:16;;;;;;;10.65;3.80;;;18.10;76.20;;;;;;4949999;28;20106;-80
2023/07/03 12:37:52;;;;;;;12.85;3.75;;;17.90;80.20;;;;;;4971343;28;20575;-80
2023/07/03 12:40:20;;;;;;;8.13;3.00;;;17.60;78.30;;;;;;4964757;28;20043;-81
2023/07/03 12:42:49;;;;;;;10.18;2.80;;;17.60;80.60;;;;;;4949603;28;20088;-81
2023/07/03 12:45:28;;;;;;;11.80;3.13;;;17.40;79.00;;;;;;4948476;28;20082;-82
2023/07/03 12:48:20;;;;;;;7.50;3.00;;;17.40;80.70;;;;;;4943083;28;20619;-81
2023/07/03 12:50:47;;;;;;;12.73;2.72;;;17.40;81.20;;;;;;4934596;29;20082;-81
2023/07/03 12:53:15;;;;;;;15.27;2.75;;;17.40;78.30;;;;;;4945454;28;20058;-79
2023/07/03 12:55:49;;;;;;;13.82;3.20;;;17.40;78.90;;;;;;4968448;28;20098;-80
2023/07/03 12:58:18;;;;;;;7.18;2.95;;;17.40;77.30;;;;;;4961150;28;20828;-78
2023/07/03 13:00:45;;;;;;;12.82;3.25;;;17.40;76.20;;;;;;4948508;28;20106;-79
2023/07/03 13:03:15;;;;;;;12.68;3.03;;;17.30;76.00;;;;;;4971879;28;20067;-81